Flight Track Log - Related Links

Times and Time Zones

All times are in EST time to prevent confusion due to time zone crossing. See the DAL3673 flight status page for this flight to view local times or setup timezone preferences in your user account.

Time Position Orientation Groundspeed Altitude Reporting Facility
EST Latitude Longitude Course Direction KTS MPH feet Rate Location/Type
Fri 05:52:26 AM 46.2000 -84.4500 180° South 160 184 2,500  Level Toronto Center
Fri 05:53:26 AM 46.1333 -84.4500 180° South 220 253 4,900 2,650 Climbing Toronto Center
Fri 05:54:26 AM 46.0500 -84.4333 172° South 270 311 7,800 2,800 Climbing Toronto Center
Fri 05:55:26 AM 45.9833 -84.4333 180° South 300 345 10,500 2,100 Climbing Toronto Center
Fri 05:56:26 AM 45.8833 -84.4167 173° South 330 380 12,000 1,500 Climbing Toronto Center
Fri 05:57:26 AM 45.7833 -84.3833 167° South 360 414 13,500 1,600 Climbing Toronto Center
Fri 05:58:26 AM 45.6667 -84.3833 180° South 390 449 15,200 1,700 Climbing Toronto Center
Fri 05:59:26 AM 45.5500 -84.3667 174° South 410 472 16,900 1,550 Climbing Toronto Center
Fri 06:00:26 AM 45.4500 -84.3333 167° South 410 472 18,300 1,500 Climbing Toronto Center
Fri 06:01:26 AM 45.3167 -84.3333 180° South 420 483 19,900 1,350 Climbing Toronto Center
Fri 06:02:26 AM 45.2167 -84.3167 173° South 420 483 21,000 1,100 Climbing Toronto Center
Fri 06:03:26 AM 45.0833 -84.2833 170° South 440 506 22,100 1,000 Climbing Toronto Center
Fri 06:04:26 AM 44.9667 -84.2833 180° South 450 518 23,000 450 Climbing Toronto Center
Fri 06:05:26 AM 44.8167 -84.2667 175° South 470 541 23,000  Level Toronto Center
Fri 06:06:26 AM 44.6833 -84.2333 170° South 490 564 23,000  Level Toronto Center
Fri 06:07:26 AM 44.5500 -84.2167 175° South 500 575 23,000  Level Toronto Center
Fri 06:08:26 AM 44.4167 -84.1833 170° South 500 575 23,000  Level Toronto Center
Fri 06:09:26 AM 44.2833 -84.1833 180° South 500 575 23,000  Level Toronto Center
Fri 06:10:26 AM 44.1500 -84.1667 175° South 510 587 23,000  Level Toronto Center
Fri 06:11:26 AM 44.0000 -84.1333 171° South 500 575 23,000  Level Toronto Center
Fri 06:12:26 AM 43.8667 -84.1167 175° South 500 575 23,000  Level Toronto Center
Fri 06:13:26 AM 43.7333 -84.1167 180° South 500 575 23,000  Level Toronto Center
Fri 06:14:26 AM 43.6000 -84.0833 170° South 500 575 23,000 -300 Level Toronto Center
Fri 06:15:26 AM 43.4500 -84.0500 171° South 500 575 22,400 -1,300 Descending Toronto Center
Fri 06:16:26 AM 43.3167 -83.9833 160° South 500 575 20,400 -2,000 Descending Toronto Center
Fri 06:17:26 AM 43.2000 -83.9333 163° South 480 552 18,400 -2,050 Descending Toronto Center
Fri 06:18:26 AM 43.0833 -83.8500 152° Southeast 440 506 16,300 -2,100 Descending Toronto Center
Fri 06:19:26 AM 42.9667 -83.8333 174° South 440 506 14,200 -2,056 Descending Toronto Center
Fri 06:20:14 AM 42.8911 -83.7669 147° Southeast 418 481 12,600 -1,636 Descending Cleveland Center
Fri 06:20:43 AM 42.8558 -83.7456 156° South 419 482 12,100 -627 Descending Cleveland Center
Fri 06:21:21 AM 42.7750 -83.6986 157° South 402 463 11,900 -492 Descending Cleveland Center
Fri 06:21:44 AM 42.7547 -83.6861 156° South 402 463 11,600 -1,279 Descending Cleveland Center
Fri 06:22:22 AM 42.6869 -83.6458 156° South 324 373 10,600 -1,180 Descending Cleveland Center
Fri 06:22:45 AM 42.6692 -83.6342 154° Southeast 344 396 10,400 -1,444 Descending Cleveland Center
Fri 06:23:16 AM 42.6228 -83.5853 142° Southeast 305 351 9,300 -1,574 Descending Cleveland Center
Fri 06:23:46 AM 42.6042 -83.5606 136° Southeast 315 362 8,800 -1,475 Descending Cleveland Center
Fri 06:24:17 AM 42.5619 -83.5056 136° Southeast 306 352 7,800 -1,200 Descending Cleveland Center
Fri 06:24:46 AM 42.5436 -83.4808 135° Southeast 304 350 7,600 -1,377 Descending Cleveland Center
Fri 06:25:18 AM 42.5031 -83.4292 137° Southeast 285 328 6,400 -1,574 Descending Cleveland Center
Fri 06:25:47 AM 42.4861 -83.4058 135° Southeast 289 333 6,000 -1,182 Descending Cleveland Center
Fri 06:26:24 AM 42.4422 -83.3497 137° Southeast 273 314 5,100 -1,475 Descending Cleveland Center
Fri 06:26:48 AM 42.4206 -83.3194 134° Southeast 273 314 4,500 -1,082 Descending Cleveland Center
Fri 06:27:25 AM 42.3889 -83.2800 137° Southeast 249 287 4,000 -590 Descending Cleveland Center
Fri 06:27:49 AM 42.3664 -83.2689 160° South 238 274 3,900 -245 Descending Cleveland Center
Fri 06:28:14 AM 42.3408 -83.2789 196° South 203 234 3,800 -787 Descending Cleveland Center
Fri 06:28:50 AM 42.3156 -83.2956 206° Southwest 198 228 3,100 -1,200 Descending Cleveland Center
Fri 06:29:14 AM 42.2983 -83.3125 216° Southwest 173 199 2,600 -1,180 Descending Cleveland Center
Fri 06:29:51 AM 42.2750 -83.3289 207° Southwest 181 208 1,900 -1,068 Descending Cleveland Center
Fri 06:30:27 AM 42.2539 -83.3456 210° Southwest 142 163 1,300 -885 Descending Cleveland Center
Fri 06:30:52 AM 42.2400 -83.3542 205° Southwest 157 181 1,000 -279 Descending Cleveland Center
Fri 06:31:53 AM 42.2078 -83.3786 209° Southwest 153 176 900 -98 Descending Cleveland Center
Fri 06:33:00 AM 42.2000 -83.3500 154° Southeast  Level FlightAware Approximate
Fri 06:40:00 AM 42.2124 -83.3534 154° Southeast  Level Estimated

Login

Don't have an account? Register now (free) for customized features, flight alerts, and more!